Time;durP1;ratioP1;P1;durP2;ratioP2;P2;SDS_P1;SDS_P2;PMS_P1;PMS_P2;Temp;Humidity;BMP_temperature;BMP_pressure;BME280_temperature;BME280_humidity;BME280_pressure;Samples;Min_cycle;Max_cycle;Signal;HPM_P1;HPM_P2
2023/12/23 00:00:29;;;;;;;6.67;1.80;;;8.30;70.20;;;;;;5098980;28;20422;-75
2023/12/23 00:02:54;;;;;;;6.13;1.93;;;8.20;70.80;;;;;;5099527;28;20458;-76
2023/12/23 00:05:20;;;;;;;8.57;1.83;;;8.30;69.60;;;;;;5101434;28;20558;-75
2023/12/23 00:07:45;;;;;;;8.02;1.85;;;8.30;70.20;;;;;;5101861;28;20382;-75
2023/12/23 00:10:11;;;;;;;11.15;1.70;;;8.30;69.00;;;;;;5099274;28;20386;-75
2023/12/23 00:12:36;;;;;;;9.30;1.95;;;8.30;69.70;;;;;;5096854;28;20804;-75
2023/12/23 00:15:02;;;;;;;5.20;1.40;;;8.20;70.80;;;;;;5096982;28;20752;-76
2023/12/23 00:17:28;;;;;;;9.23;2.00;;;8.20;69.80;;;;;;5097519;28;20453;-76
2023/12/23 00:19:53;;;;;;;10.37;1.77;;;8.30;69.30;;;;;;5097269;28;20750;-76
2023/12/23 00:22:19;;;;;;;11.27;1.90;;;8.20;71.00;;;;;;5098175;28;20800;-75
2023/12/23 00:24:44;;;;;;;8.02;1.75;;;8.40;67.80;;;;;;5101880;28;20385;-76
2023/12/23 00:27:10;;;;;;;7.10;1.67;;;8.30;67.60;;;;;;5106062;28;20468;-76
2023/12/23 00:29:35;;;;;;;5.22;1.77;;;8.20;69.10;;;;;;5102174;28;20402;-74
2023/12/23 00:32:01;;;;;;;8.13;1.50;;;8.20;71.90;;;;;;5094774;28;20389;-76
2023/12/23 00:34:26;;;;;;;9.98;1.90;;;8.30;71.90;;;;;;5094078;28;20429;-75
2023/12/23 00:36:52;;;;;;;8.77;1.90;;;8.40;71.40;;;;;;5077552;28;20730;-76
2023/12/23 00:39:18;;;;;;;8.87;2.30;;;8.40;69.70;;;;;;5110868;28;20449;-76
2023/12/23 00:41:44;;;;;;;9.32;1.95;;;8.30;70.20;;;;;;5107937;28;20477;-76
2023/12/23 00:44:09;;;;;;;9.23;2.10;;;8.40;70.30;;;;;;5102420;28;20445;-76
2023/12/23 00:46:35;;;;;;;11.50;1.90;;;8.40;70.30;;;;;;5094614;28;20450;-75
2023/12/23 00:49:00;;;;;;;8.27;1.50;;;8.40;69.40;;;;;;5094161;28;20500;-75
2023/12/23 00:51:26;;;;;;;9.40;1.67;;;8.30;70.40;;;;;;5075691;28;20493;-75
2023/12/23 00:53:51;;;;;;;8.77;1.60;;;8.40;70.40;;;;;;5093690;28;20405;-75
2023/12/23 00:56:21;;;;;;;11.63;1.60;;;8.40;71.20;;;;;;5093630;28;20499;-76
2023/12/23 00:58:47;;;;;;;14.25;1.92;;;8.40;72.60;;;;;;5093327;28;20378;-75
2023/12/23 01:01:13;;;;;;;8.13;1.85;;;8.30;71.50;;;;;;5075344;28;20432;-75
2023/12/23 01:03:38;;;;;;;5.40;1.60;;;8.30;72.80;;;;;;5093352;28;20386;-77
2023/12/23 01:06:04;;;;;;;8.87;2.20;;;8.20;73.60;;;;;;5092922;28;20386;-75
2023/12/23 01:08:30;;;;;;;7.43;1.43;;;8.30;75.20;;;;;;5093081;28;20491;-75
2023/12/23 01:10:56;;;;;;;7.03;1.67;;;8.40;70.90;;;;;;5092831;28;20389;-75
2023/12/23 01:13:21;;;;;;;9.27;1.80;;;8.30;71.40;;;;;;5092659;28;20394;-76
2023/12/23 01:15:47;;;;;;;9.97;1.60;;;8.20;74.70;;;;;;5092660;28;20442;-76
2023/12/23 01:18:13;;;;;;;4.72;1.55;;;8.30;70.70;;;;;;5092619;28;20374;-77
2023/12/23 01:20:39;;;;;;;8.60;1.70;;;8.30;71.30;;;;;;5092714;28;20436;-76
2023/12/23 01:23:05;;;;;;;9.00;1.73;;;8.20;73.90;;;;;;5092612;28;20382;-76
2023/12/23 01:25:31;;;;;;;10.63;1.90;;;8.20;73.80;;;;;;5074332;28;20425;-76
2023/12/23 01:28:00;;;;;;;6.57;2.27;;;8.10;77.10;;;;;;5093123;28;20868;-76
2023/12/23 01:30:26;;;;;;;10.23;1.92;;;8.00;77.30;;;;;;5092673;28;20473;-75
2023/12/23 01:32:51;;;;;;;11.10;2.15;;;7.90;77.90;;;;;;5092302;28;20469;-76
2023/12/23 01:35:17;;;;;;;9.43;1.85;;;8.10;77.40;;;;;;5092765;28;20468;-75
2023/12/23 01:37:42;;;;;;;11.43;1.80;;;8.10;75.20;;;;;;5092584;28;20394;-76
2023/12/23 01:40:08;;;;;;;7.23;1.90;;;8.00;79.90;;;;;;5092256;28;20370;-76
2023/12/23 01:42:36;;;;;;;7.20;1.40;;;7.90;82.30;;;;;;5092136;28;20474;-77
2023/12/23 01:45:02;;;;;;;7.75;1.90;;;8.00;85.40;;;;;;5092345;28;20447;-75
2023/12/23 01:47:28;;;;;;;7.45;1.70;;;8.00;83.60;;;;;;5092737;28;20378;-75
2023/12/23 01:49:56;;;;;;;6.40;1.90;;;7.90;84.20;;;;;;5093024;28;20443;-76
2023/12/23 01:52:22;;;;;;;8.70;2.13;;;8.00;85.30;;;;;;5092790;28;20477;-76
2023/12/23 01:54:48;;;;;;;7.70;1.50;;;7.90;86.90;;;;;;5092274;28;20406;-76
2023/12/23 01:57:14;;;;;;;4.60;1.40;;;7.90;86.10;;;;;;5092461;28;20374;-76
2023/12/23 01:59:39;;;;;;;8.40;1.90;;;8.00;86.60;;;;;;5074702;28;20405;-75
2023/12/23 02:02:05;;;;;;;6.43;1.60;;;7.90;87.40;;;;;;5093576;28;20390;-76
2023/12/23 02:04:31;;;;;;;8.63;1.80;;;7.90;88.00;;;;;;5094131;28;20407;-76
2023/12/23 02:06:57;;;;;;;6.63;1.70;;;7.90;89.30;;;;;;5074777;28;20386;-76
2023/12/23 02:09:22;;;;;;;6.97;1.60;;;7.80;91.90;;;;;;5092715;28;20393;-75
2023/12/23 02:12:11;;;;;;;8.30;1.90;;;7.90;90.80;;;;;;5075111;28;20398;-76
2023/12/23 02:15:01;;;;;;;7.97;1.90;;;7.90;91.80;;;;;;5095047;28;20410;-75
2023/12/23 02:17:26;;;;;;;9.73;1.90;;;7.90;92.40;;;;;;5100907;28;20373;-76
2023/12/23 02:19:52;;;;;;;14.17;2.00;;;7.90;93.50;;;;;;5094588;28;20389;-76
2023/12/23 02:22:17;;;;;;;5.63;1.50;;;8.00;92.60;;;;;;5093469;28;20538;-77
2023/12/23 02:24:43;;;;;;;8.50;1.50;;;8.00;91.30;;;;;;5098819;28;20386;-76
2023/12/23 02:27:13;;;;;;;9.03;1.70;;;8.10;90.60;;;;;;5099866;28;20401;-76
2023/12/23 02:29:41;;;;;;;5.03;1.63;;;8.10;88.50;;;;;;5091710;28;20844;-75
2023/12/23 02:32:09;;;;;;;4.68;1.50;;;8.00;90.80;;;;;;5092422;28;20414;-74
2023/12/23 02:34:35;;;;;;;6.10;1.70;;;8.10;90.60;;;;;;5093170;28;20421;-74
2023/12/23 02:37:01;;;;;;;6.18;1.73;;;8.10;92.30;;;;;;5092994;28;20796;-76
2023/12/23 02:39:26;;;;;;;6.60;1.27;;;8.00;90.90;;;;;;5091810;28;20379;-74
2023/12/23 02:41:52;;;;;;;10.60;2.20;;;8.10;92.90;;;;;;5097159;28;20385;-74
2023/12/23 02:44:17;;;;;;;7.35;1.90;;;8.00;93.70;;;;;;5091032;28;20923;-75
2023/12/23 02:46:43;;;;;;;3.92;1.70;;;7.90;96.10;;;;;;5091154;28;20404;-73
2023/12/23 02:49:09;;;;;;;5.47;2.10;;;8.00;97.50;;;;;;5091101;28;20386;-76
2023/12/23 02:51:34;;;;;;;7.47;1.73;;;8.00;97.50;;;;;;5090948;28;20394;-74
2023/12/23 02:54:00;;;;;;;4.60;1.60;;;8.10;98.20;;;;;;5071897;28;21023;-76
2023/12/23 02:56:25;;;;;;;7.35;1.90;;;8.20;92.80;;;;;;5090508;28;20477;-75
2023/12/23 02:58:51;;;;;;;4.82;2.05;;;8.30;90.90;;;;;;5090876;28;20383;-76
2023/12/23 03:01:19;;;;;;;9.20;3.00;;;8.20;91.30;;;;;;5090686;28;20465;-75
2023/12/23 03:03:45;;;;;;;6.22;2.40;;;8.10;95.50;;;;;;5091168;28;20388;-74
2023/12/23 03:06:14;;;;;;;9.52;2.40;;;7.90;97.90;;;;;;5091631;28;20493;-75
2023/12/23 03:08:40;;;;;;;8.65;2.30;;;7.90;99.90;;;;;;5091025;28;20469;-75
2023/12/23 03:11:05;;;;;;;7.00;2.35;;;8.00;99.90;;;;;;5090790;28;20939;-75
2023/12/23 03:13:31;;;;;;;6.70;2.40;;;8.00;99.90;;;;;;5090547;28;20756;-76
2023/12/23 03:15:56;;;;;;;7.90;2.80;;;7.90;99.90;;;;;;5072558;28;20407;-74
2023/12/23 03:18:22;;;;;;;11.15;3.10;;;8.00;99.90;;;;;;5091261;28;20418;-75
2023/12/23 03:20:48;;;;;;;8.38;2.50;;;7.90;99.90;;;;;;5093417;28;20386;-74
2023/12/23 03:23:14;;;;;;;6.30;2.50;;;8.10;99.90;;;;;;5097716;28;20378;-73
2023/12/23 03:25:39;;;;;;;10.03;3.50;;;8.10;99.90;;;;;;5095719;28;20374;-75
2023/12/23 03:28:05;;;;;;;12.43;2.87;;;8.30;99.90;;;;;;5102940;28;20392;-75
2023/12/23 03:30:30;;;;;;;10.53;3.00;;;8.30;99.00;;;;;;5104603;28;20442;-75
2023/12/23 03:32:56;;;;;;;12.07;2.77;;;8.40;99.90;;;;;;5101204;28;20443;-77
2023/12/23 03:35:21;;;;;;;17.50;3.20;;;8.40;98.00;;;;;;5109193;28;20411;-76
2023/12/23 03:37:47;;;;;;;14.60;3.77;;;8.60;99.00;;;;;;5108105;28;20457;-78
2023/12/23 03:40:13;;;;;;;12.93;3.60;;;8.60;96.90;;;;;;5102572;28;20476;-76
2023/12/23 03:42:40;;;;;;;9.23;3.75;;;8.70;97.20;;;;;;5094517;28;20414;-74
2023/12/23 03:45:07;;;;;;;13.00;3.60;;;8.80;98.40;;;;;;5091078;28;20940;-74
2023/12/23 03:47:33;;;;;;;9.55;4.20;;;8.80;97.60;;;;;;5090654;28;20398;-74
2023/12/23 03:49:59;;;;;;;7.65;3.75;;;8.90;98.40;;;;;;5090175;28;20386;-74
2023/12/23 03:52:25;;;;;;;11.68;3.80;;;9.00;96.40;;;;;;5090086;28;20717;-74
2023/12/23 03:54:51;;;;;;;11.77;4.20;;;9.00;97.80;;;;;;5089757;28;20753;-75
2023/12/23 03:57:16;;;;;;;8.30;4.20;;;9.10;97.60;;;;;;5090303;28;20389;-74
2023/12/23 03:59:42;;;;;;;10.10;4.20;;;9.10;96.40;;;;;;5090549;28;20438;-75
2023/12/23 04:02:07;;;;;;;8.80;4.00;;;9.10;97.70;;;;;;5093008;28;20382;-77
2023/12/23 04:04:37;;;;;;;10.63;4.70;;;9.00;97.70;;;;;;5092324;28;20378;-74
2023/12/23 04:07:03;;;;;;;13.43;4.80;;;9.10;97.10;;;;;;5094427;28;20418;-74
2023/12/23 04:09:28;;;;;;;9.13;4.73;;;9.20;96.20;;;;;;5095656;28;20386;-76
2023/12/23 04:11:55;;;;;;;12.73;5.10;;;9.30;94.70;;;;;;5095231;28;20741;-73
2023/12/23 04:14:21;;;;;;;12.70;5.28;;;9.20;95.90;;;;;;5095054;28;20405;-74
2023/12/23 04:16:47;;;;;;;12.20;5.07;;;9.20;96.60;;;;;;5094982;28;20466;-74
2023/12/23 04:19:13;;;;;;;11.27;5.70;;;9.20;96.80;;;;;;5094690;28;20369;-76
2023/12/23 04:21:38;;;;;;;10.75;6.00;;;9.20;98.30;;;;;;5095664;28;20736;-74
2023/12/23 04:24:04;;;;;;;11.50;6.40;;;9.20;97.50;;;;;;5095856;28;20393;-74
2023/12/23 04:26:31;;;;;;;12.07;6.60;;;9.20;95.30;;;;;;5097032;28;20745;-75
2023/12/23 04:28:56;;;;;;;11.82;7.30;;;9.20;94.90;;;;;;5097073;28;20389;-75
2023/12/23 04:31:22;;;;;;;11.07;6.90;;;9.20;96.10;;;;;;5095981;28;20744;-75
2023/12/23 04:33:48;;;;;;;14.38;7.40;;;9.20;94.90;;;;;;5094419;28;20745;-75
2023/12/23 04:36:14;;;;;;;17.50;8.03;;;9.20;95.10;;;;;;5096174;28;20385;-74
2023/12/23 04:38:39;;;;;;;18.95;8.20;;;9.20;94.60;;;;;;5097316;28;20374;-75
2023/12/23 04:41:06;;;;;;;14.10;7.97;;;9.20;91.70;;;;;;5095375;28;20489;-74
2023/12/23 04:43:31;;;;;;;12.97;7.80;;;9.20;91.20;;;;;;5075972;28;20389;-75
2023/12/23 04:45:57;;;;;;;16.20;7.80;;;9.20;89.50;;;;;;5094022;28;20926;-75
2023/12/23 04:48:24;;;;;;;22.85;7.82;;;9.20;90.20;;;;;;5093675;28;20385;-73
2023/12/23 04:50:50;;;;;;;15.00;7.75;;;9.20;89.60;;;;;;5093226;28;20379;-74
2023/12/23 04:53:15;;;;;;;19.02;7.30;;;9.20;86.70;;;;;;5093579;28;20406;-73
2023/12/23 04:55:42;;;;;;;18.77;7.38;;;9.20;87.80;;;;;;5093213;28;20729;-76
2023/12/23 04:58:08;;;;;;;14.32;7.18;;;9.20;87.50;;;;;;5093080;28;20415;-74
2023/12/23 05:00:33;;;;;;;15.90;7.50;;;9.20;85.30;;;;;;5093016;28;20861;-75
2023/12/23 05:02:59;;;;;;;19.10;8.10;;;9.30;85.70;;;;;;5093072;28;20447;-75
2023/12/23 05:05:25;;;;;;;19.15;7.97;;;9.30;83.20;;;;;;5094067;28;20760;-75
2023/12/23 05:07:50;;;;;;;18.73;7.60;;;9.30;82.40;;;;;;5094538;28;20382;-74
2023/12/23 05:10:16;;;;;;;16.90;7.47;;;9.30;81.20;;;;;;5093018;28;20502;-74
2023/12/23 05:12:41;;;;;;;15.50;7.53;;;9.30;81.40;;;;;;5092678;28;20404;-73
2023/12/23 05:15:07;;;;;;;17.83;7.55;;;9.30;79.70;;;;;;5066669;28;20383;-74
2023/12/23 05:17:33;;;;;;;15.05;7.60;;;9.30;80.70;;;;;;5066044;28;20749;-76
2023/12/23 05:19:58;;;;;;;16.53;7.90;;;9.30;79.30;;;;;;5052375;28;20519;-73
2023/12/23 05:22:24;;;;;;;13.88;7.00;;;9.30;79.10;;;;;;5051267;28;20884;-73
2023/12/23 05:24:49;;;;;;;15.80;6.88;;;9.40;78.00;;;;;;5060506;28;20404;-75
2023/12/23 05:27:15;;;;;;;12.90;7.10;;;9.40;75.10;;;;;;5067880;28;20736;-75
2023/12/23 05:29:41;;;;;;;16.38;6.50;;;9.40;75.40;;;;;;5071597;28;20389;-74
2023/12/23 05:32:07;;;;;;;10.18;6.05;;;9.40;75.10;;;;;;5070952;28;20747;-72
2023/12/23 05:34:32;;;;;;;17.00;6.30;;;9.40;74.80;;;;;;5053911;28;20421;-73
2023/12/23 05:36:58;;;;;;;13.47;6.63;;;9.40;75.00;;;;;;5070508;28;20380;-73
2023/12/23 05:39:23;;;;;;;12.80;5.80;;;9.50;74.10;;;;;;5071702;28;20505;-73
2023/12/23 05:41:49;;;;;;;14.07;6.50;;;9.50;73.60;;;;;;5058496;28;20472;-74
2023/12/23 05:44:15;;;;;;;12.27;6.20;;;9.50;73.90;;;;;;5070587;28;20474;-73
2023/12/23 05:46:41;;;;;;;9.80;5.82;;;9.50;74.50;;;;;;5059672;28;20389;-75
2023/12/23 05:49:07;;;;;;;12.68;6.05;;;9.50;73.60;;;;;;5051800;28;20982;-74
2023/12/23 05:51:33;;;;;;;10.47;6.17;;;9.50;73.90;;;;;;5049672;28;20420;-73
2023/12/23 05:53:59;;;;;;;10.70;5.45;;;9.50;73.00;;;;;;5051096;28;20405;-73
2023/12/23 05:56:24;;;;;;;16.65;6.28;;;9.50;72.70;;;;;;5050445;28;20391;-73
2023/12/23 05:58:50;;;;;;;10.38;5.72;;;9.60;72.90;;;;;;5050258;28;20377;-72
2023/12/23 06:01:16;;;;;;;16.50;6.38;;;9.60;72.70;;;;;;5060016;28;20915;-72
2023/12/23 06:03:41;;;;;;;17.33;6.95;;;9.50;74.30;;;;;;5052511;28;20404;-74
2023/12/23 06:06:07;;;;;;;12.07;6.00;;;9.50;73.50;;;;;;5049946;28;20392;-74
2023/12/23 06:08:32;;;;;;;14.93;5.70;;;9.50;72.80;;;;;;5051804;28;20502;-72
2023/12/23 06:10:58;;;;;;;9.10;5.23;;;9.60;74.20;;;;;;5051616;28;20422;-73
2023/12/23 06:13:24;;;;;;;14.37;5.70;;;9.50;72.80;;;;;;5069540;28;20391;-74
2023/12/23 06:15:50;;;;;;;12.23;5.80;;;9.60;72.60;;;;;;5069981;28;20371;-73
2023/12/23 06:18:16;;;;;;;10.20;5.53;;;9.60;72.40;;;;;;5061714;28;20398;-73
2023/12/23 06:20:41;;;;;;;11.50;5.30;;;9.60;73.00;;;;;;5060951;28;20439;-73
2023/12/23 06:23:07;;;;;;;10.00;5.83;;;9.60;73.30;;;;;;5070897;28;20395;-72
2023/12/23 06:25:33;;;;;;;13.23;5.57;;;9.60;71.60;;;;;;5068085;28;20502;-73
2023/12/23 06:27:58;;;;;;;10.05;5.13;;;9.60;71.40;;;;;;5087884;28;20419;-72
2023/12/23 06:30:24;;;;;;;14.37;5.70;;;9.70;70.70;;;;;;5078736;28;20414;-73
2023/12/23 06:32:50;;;;;;;13.87;5.50;;;9.70;72.30;;;;;;5069553;28;20395;-73
2023/12/23 06:35:15;;;;;;;8.60;4.80;;;9.70;69.90;;;;;;5061567;28;20401;-73
2023/12/23 06:37:41;;;;;;;8.97;4.77;;;9.70;71.70;;;;;;5055932;28;20434;-73
2023/12/23 06:40:07;;;;;;;12.47;4.93;;;9.80;69.80;;;;;;5064582;28;20865;-73
2023/12/23 06:42:33;;;;;;;13.38;5.28;;;9.70;70.40;;;;;;5050691;28;20381;-74
2023/12/23 06:44:58;;;;;;;15.32;4.90;;;9.70;70.40;;;;;;5050933;28;20388;-74
2023/12/23 06:47:24;;;;;;;10.10;5.20;;;9.70;71.30;;;;;;5051836;28;20393;-73
2023/12/23 06:49:50;;;;;;;13.60;5.65;;;9.70;70.80;;;;;;5050987;28;20411;-76
2023/12/23 06:52:15;;;;;;;10.30;5.10;;;9.80;69.90;;;;;;5052773;28;20392;-74
2023/12/23 06:54:41;;;;;;;14.13;5.85;;;9.70;71.10;;;;;;5050499;28;20907;-74
2023/12/23 06:57:06;;;;;;;13.57;5.57;;;9.70;71.60;;;;;;5051372;28;20398;-72
2023/12/23 06:59:32;;;;;;;13.60;5.83;;;9.80;71.60;;;;;;5048762;28;20392;-73
2023/12/23 07:01:57;;;;;;;16.07;5.43;;;9.70;71.60;;;;;;5051031;28;20400;-72
2023/12/23 07:04:23;;;;;;;10.40;5.00;;;9.70;72.60;;;;;;5064900;28;20407;-73
2023/12/23 07:06:48;;;;;;;12.10;4.70;;;9.70;73.30;;;;;;5060764;28;20410;-72
2023/12/23 07:09:14;;;;;;;14.35;5.50;;;9.70;72.80;;;;;;5069442;28;20749;-76
2023/12/23 07:11:40;;;;;;;17.52;5.30;;;9.70;73.90;;;;;;5050137;28;20395;-74
2023/12/23 07:14:05;;;;;;;10.63;5.30;;;9.60;74.00;;;;;;5048234;28;20412;-75
2023/12/23 07:16:31;;;;;;;14.38;5.30;;;9.60;76.30;;;;;;5049365;28;20397;-74
2023/12/23 07:18:56;;;;;;;14.75;6.03;;;9.60;76.50;;;;;;5065944;28;20457;-73
2023/12/23 07:21:22;;;;;;;12.70;5.60;;;9.60;77.00;;;;;;5069479;28;20487;-74
2023/12/23 07:23:47;;;;;;;15.47;6.90;;;9.60;77.50;;;;;;5070104;28;20466;-74
2023/12/23 07:26:14;;;;;;;13.83;5.17;;;9.60;77.70;;;;;;5070130;28;20384;-74
2023/12/23 07:28:40;;;;;;;15.98;5.80;;;9.60;76.60;;;;;;5069936;28;20403;-74
2023/12/23 07:31:06;;;;;;;9.65;5.30;;;9.50;80.70;;;;;;5070565;28;20383;-73
2023/12/23 07:33:32;;;;;;;17.45;5.95;;;9.50;80.50;;;;;;5069897;28;20498;-72
2023/12/23 07:35:57;;;;;;;12.88;5.88;;;9.50;82.20;;;;;;5070162;28;20853;-74
2023/12/23 07:38:23;;;;;;;11.52;5.80;;;9.50;83.00;;;;;;5071010;28;20782;-74
2023/12/23 07:40:49;;;;;;;12.70;6.35;;;9.50;81.80;;;;;;5070461;28;20387;-72
2023/12/23 07:43:14;;;;;;;12.55;6.20;;;9.50;82.40;;;;;;5054766;28;20467;-73
2023/12/23 07:45:40;;;;;;;16.95;6.40;;;9.50;84.30;;;;;;5054218;28;20403;-73
2023/12/23 07:48:06;;;;;;;17.05;7.50;;;9.40;85.80;;;;;;5054792;28;20416;-74
2023/12/23 07:50:32;;;;;;;14.30;6.60;;;9.40;86.00;;;;;;5052749;28;20424;-73
2023/12/23 07:52:58;;;;;;;18.92;6.68;;;9.40;86.50;;;;;;5054347;28;20412;-73
2023/12/23 07:55:24;;;;;;;15.57;6.55;;;9.40;87.80;;;;;;5053894;28;20472;-75
2023/12/23 07:57:50;;;;;;;15.00;6.43;;;9.30;88.80;;;;;;5073794;28;20566;-74
2023/12/23 08:00:16;;;;;;;18.37;7.00;;;9.40;89.20;;;;;;5072408;28;20383;-72
2023/12/23 08:02:43;;;;;;;14.05;6.20;;;9.40;88.40;;;;;;5073631;28;20816;-74
2023/12/23 08:05:08;;;;;;;19.08;7.18;;;9.40;88.50;;;;;;5073862;28;20395;-72
2023/12/23 08:07:34;;;;;;;14.95;6.72;;;9.40;88.50;;;;;;5056018;28;20446;-73
2023/12/23 08:09:59;;;;;;;12.23;7.10;;;9.40;88.80;;;;;;5056011;28;20379;-73
2023/12/23 08:12:25;;;;;;;23.00;7.20;;;9.40;90.90;;;;;;5074105;28;20526;-73
2023/12/23 08:14:50;;;;;;;22.53;8.03;;;9.40;87.40;;;;;;5073571;28;20951;-74
2023/12/23 08:17:16;;;;;;;18.87;7.30;;;9.40;87.70;;;;;;5073966;28;20451;-74
2023/12/23 08:19:42;;;;;;;14.33;6.63;;;9.40;87.10;;;;;;5073760;28;20376;-72
2023/12/23 08:22:07;;;;;;;15.37;6.60;;;9.50;85.10;;;;;;5073971;28;20735;-74
2023/12/23 08:24:33;;;;;;;12.38;6.03;;;9.50;83.70;;;;;;5073455;28;20451;-73
2023/12/23 08:27:00;;;;;;;17.23;6.50;;;9.60;82.70;;;;;;5073164;28;20392;-72
2023/12/23 08:29:25;;;;;;;15.20;6.55;;;9.50;81.90;;;;;;5055710;28;20395;-73
2023/12/23 08:31:51;;;;;;;18.20;6.40;;;9.60;80.90;;;;;;5063501;28;20390;-74
2023/12/23 08:34:17;;;;;;;16.60;6.17;;;9.60;80.30;;;;;;5055000;28;20413;-75
2023/12/23 08:36:43;;;;;;;14.13;5.60;;;9.70;79.40;;;;;;5053522;28;20377;-75
2023/12/23 08:39:08;;;;;;;15.70;6.30;;;9.70;78.80;;;;;;5053905;28;20386;-74
2023/12/23 08:41:37;;;;;;;16.63;6.43;;;9.70;78.60;;;;;;5066572;28;20391;-74
2023/12/23 08:44:03;;;;;;;18.73;7.15;;;9.70;79.20;;;;;;5075037;28;20517;-75
2023/12/23 08:46:29;;;;;;;18.75;6.35;;;9.80;77.80;;;;;;5075634;28;20400;-75
2023/12/23 08:48:55;;;;;;;17.13;6.80;;;9.70;78.80;;;;;;5075108;28;20891;-76
2023/12/23 08:51:21;;;;;;;16.60;6.70;;;9.80;76.00;;;;;;5074392;28;20525;-75
2023/12/23 08:53:46;;;;;;;11.23;5.30;;;9.80;76.20;;;;;;5072581;28;20403;-74
2023/12/23 08:56:12;;;;;;;15.87;5.27;;;9.80;75.00;;;;;;5061155;28;20378;-75
2023/12/23 08:58:37;;;;;;;13.80;5.20;;;9.90;73.00;;;;;;5054134;28;20455;-75
2023/12/23 09:01:03;;;;;;;15.32;4.60;;;9.90;72.60;;;;;;5060407;28;20389;-73
2023/12/23 09:03:30;;;;;;;20.75;5.72;;;10.00;70.90;;;;;;5053502;28;20465;-76
2023/12/23 09:05:56;;;;;;;11.95;4.70;;;10.00;71.00;;;;;;5054045;28;20470;-74
2023/12/23 09:08:22;;;;;;;16.10;4.88;;;10.00;71.00;;;;;;5065000;28;20376;-74
2023/12/23 09:10:48;;;;;;;11.30;4.28;;;10.10;68.90;;;;;;5075165;28;20387;-74
2023/12/23 09:13:14;;;;;;;10.93;4.30;;;10.10;67.70;;;;;;5074924;28;20498;-75
2023/12/23 09:15:40;;;;;;;13.70;5.43;;;10.20;67.90;;;;;;5074571;28;20383;-74
2023/12/23 09:18:05;;;;;;;19.97;4.83;;;10.10;67.10;;;;;;5074322;28;20387;-74
2023/12/23 09:20:31;;;;;;;16.15;4.43;;;10.20;66.90;;;;;;5073806;28;20390;-74
2023/12/23 09:22:57;;;;;;;12.98;4.55;;;10.20;66.10;;;;;;5052967;28;20381;-74
2023/12/23 09:25:22;;;;;;;20.25;4.60;;;10.20;65.50;;;;;;5051797;28;20390;-74
2023/12/23 09:27:48;;;;;;;15.33;3.87;;;10.20;65.30;;;;;;5068798;28;20376;-74
2023/12/23 09:30:14;;;;;;;11.57;4.30;;;10.30;64.40;;;;;;5054475;28;20392;-75
2023/12/23 09:32:40;;;;;;;15.02;4.60;;;10.30;65.30;;;;;;5072583;28;20396;-74
2023/12/23 09:35:05;;;;;;;9.43;4.40;;;10.30;64.20;;;;;;5072302;28;20415;-74
2023/12/23 09:37:31;;;;;;;11.82;3.75;;;10.40;63.70;;;;;;5072635;28;20414;-74
2023/12/23 09:39:59;;;;;;;12.48;3.42;;;10.40;62.60;;;;;;5054710;28;20387;-74
2023/12/23 09:42:24;;;;;;;15.85;3.40;;;10.50;62.80;;;;;;5072120;28;20404;-75
2023/12/23 09:44:50;;;;;;;15.30;3.58;;;10.40;62.50;;;;;;5071348;28;20380;-74
2023/12/23 09:47:16;;;;;;;10.65;2.90;;;10.40;63.50;;;;;;5072761;28;20390;-75
2023/12/23 09:49:42;;;;;;;14.23;3.53;;;10.40;61.70;;;;;;5071702;28;20411;-74
2023/12/23 09:52:07;;;;;;;11.70;3.87;;;10.50;62.10;;;;;;5072120;28;20407;-74
2023/12/23 09:54:38;;;;;;;13.63;3.60;;;10.50;62.60;;;;;;5070208;28;20905;-75
2023/12/23 09:57:05;;;;;;;12.35;3.38;;;10.40;63.20;;;;;;5051838;28;20381;-73
2023/12/23 09:59:31;;;;;;;12.20;3.35;;;10.50;62.20;;;;;;5051999;28;20381;-75
2023/12/23 10:01:56;;;;;;;7.75;2.90;;;10.50;63.10;;;;;;5051990;28;20397;-75
2023/12/23 10:04:22;;;;;;;15.23;3.70;;;10.40;63.30;;;;;;5051104;28;20409;-73
2023/12/23 10:06:47;;;;;;;9.13;3.00;;;10.50;63.20;;;;;;5052024;28;20470;-74
2023/12/23 10:09:13;;;;;;;13.40;3.17;;;10.50;63.70;;;;;;5068689;28;20434;-74
2023/12/23 10:11:39;;;;;;;17.67;3.95;;;10.50;64.40;;;;;;5072252;28;20391;-75
2023/12/23 10:14:05;;;;;;;12.43;3.60;;;10.40;65.80;;;;;;5070873;28;20430;-74
2023/12/23 10:16:30;;;;;;;9.33;3.50;;;10.40;67.90;;;;;;5060586;28;20885;-75
2023/12/23 10:18:56;;;;;;;12.40;3.20;;;10.30;70.50;;;;;;5070436;28;20735;-73
2023/12/23 10:21:21;;;;;;;9.50;3.97;;;10.20;73.80;;;;;;5051732;28;20385;-74
2023/12/23 10:23:47;;;;;;;13.90;4.07;;;10.10;76.50;;;;;;5065840;28;20380;-72
2023/12/23 10:26:14;;;;;;;12.18;4.05;;;10.00;78.80;;;;;;5058376;28;20389;-75
2023/12/23 10:28:43;;;;;;;8.38;4.00;;;10.00;80.70;;;;;;5056395;28;20399;-74
2023/12/23 10:31:12;;;;;;;16.75;4.20;;;9.90;82.30;;;;;;5058572;28;20445;-74
2023/12/23 10:33:44;;;;;;;9.35;3.92;;;9.90;84.20;;;;;;5069329;28;20549;-73
2023/12/23 10:36:11;;;;;;;11.20;4.40;;;9.80;86.30;;;;;;5050536;28;20449;-73
2023/12/23 10:38:41;;;;;;;12.05;4.55;;;9.80;89.30;;;;;;5061076;28;20517;-72
2023/12/23 10:41:23;;;;;;;12.87;5.03;;;9.80;90.30;;;;;;5053484;28;20425;-72
2023/12/23 10:43:51;;;;;;;16.80;5.05;;;9.70;90.20;;;;;;5071369;28;20931;-73
2023/12/23 10:46:17;;;;;;;8.68;5.80;;;9.70;90.70;;;;;;5067254;28;20405;-73
2023/12/23 10:48:45;;;;;;;9.03;5.00;;;9.70;91.40;;;;;;5056139;28;20502;-73
2023/12/23 10:51:11;;;;;;;13.23;5.65;;;9.70;89.60;;;;;;5068889;28;20398;-74
2023/12/23 10:53:37;;;;;;;10.50;5.78;;;9.70;90.70;;;;;;5046758;28;20478;-72
2023/12/23 10:56:03;;;;;;;13.02;5.78;;;9.80;89.10;;;;;;5048696;28;20435;-71
2023/12/23 10:58:31;;;;;;;15.57;5.30;;;9.80;91.10;;;;;;5049068;28;20385;-72
2023/12/23 11:00:59;;;;;;;9.75;5.35;;;9.70;92.50;;;;;;5046610;28;20480;-74
2023/12/23 11:03:25;;;;;;;14.05;6.25;;;9.70;91.00;;;;;;5047650;28;20421;-72
2023/12/23 11:05:53;;;;;;;11.35;5.68;;;9.60;92.50;;;;;;5061479;28;20419;-73
2023/12/23 11:08:23;;;;;;;13.10;6.17;;;9.60;94.00;;;;;;5066565;28;20424;-72
2023/12/23 11:10:49;;;;;;;16.52;5.90;;;9.70;92.20;;;;;;5051942;28;20437;-73
2023/12/23 11:13:15;;;;;;;15.52;6.20;;;9.70;92.50;;;;;;5069485;28;20450;-73
2023/12/23 11:15:42;;;;;;;12.80;6.10;;;9.70;93.80;;;;;;5062671;28;20394;-73
2023/12/23 11:18:10;;;;;;;15.40;6.15;;;9.70;92.70;;;;;;5054852;28;20397;-73
2023/12/23 11:20:43;;;;;;;20.80;7.57;;;9.70;91.60;;;;;;5050430;28;20955;-72
2023/12/23 11:23:27;;;;;;;8.73;5.67;;;9.70;92.30;;;;;;5068100;28;20893;-75
2023/12/23 11:25:54;;;;;;;11.68;5.68;;;9.70;91.30;;;;;;5071987;28;20386;-73
2023/12/23 11:28:21;;;;;;;15.02;5.40;;;9.70;92.90;;;;;;5068260;28;20384;-73
2023/12/23 11:30:47;;;;;;;12.13;6.00;;;9.70;92.50;;;;;;5064552;28;20495;-73
2023/12/23 11:33:14;;;;;;;12.57;5.50;;;9.70;90.20;;;;;;5004830;28;1739998;-72
2023/12/23 11:35:48;;;;;;;11.30;4.80;;;9.70;88.60;;;;;;5070067;28;20387;-72
2023/12/23 11:38:14;;;;;;;12.07;5.75;;;9.80;86.80;;;;;;5050738;28;20400;-72
2023/12/23 11:40:40;;;;;;;14.13;5.10;;;9.80;85.70;;;;;;5050813;28;20885;-72
2023/12/23 11:43:05;;;;;;;13.93;5.50;;;9.80;83.50;;;;;;5051018;28;20390;-73
2023/12/23 11:45:31;;;;;;;15.00;5.53;;;9.90;81.80;;;;;;5050337;28;20412;-74
2023/12/23 11:47:57;;;;;;;13.77;5.43;;;9.90;79.70;;;;;;5033439;28;20378;-75
2023/12/23 11:50:22;;;;;;;10.52;4.45;;;10.00;78.20;;;;;;5070615;28;20383;-75
2023/12/23 11:52:48;;;;;;;9.73;4.10;;;10.00;75.80;;;;;;5070917;28;20379;-75
2023/12/23 11:55:17;;;;;;;10.63;3.97;;;10.00;75.80;;;;;;5070220;28;20533;-75
2023/12/23 11:57:44;;;;;;;10.13;3.80;;;10.10;72.10;;;;;;5070561;28;20375;-75
2023/12/23 12:00:10;;;;;;;14.20;4.18;;;10.20;71.60;;;;;;5071226;28;20423;-75
2023/12/23 12:02:35;;;;;;;8.52;3.60;;;10.20;70.50;;;;;;5072667;28;20375;-76
2023/12/23 12:05:01;;;;;;;7.72;3.55;;;10.30;68.50;;;;;;5071619;28;20391;-75
2023/12/23 12:07:28;;;;;;;7.55;3.25;;;10.40;67.00;;;;;;5073853;28;20383;-75
2023/12/23 12:09:54;;;;;;;12.20;3.40;;;10.40;66.70;;;;;;5071434;28;20470;-74
2023/12/23 12:12:20;;;;;;;9.97;2.80;;;10.50;64.30;;;;;;5050818;28;20406;-76
2023/12/23 12:14:45;;;;;;;11.50;3.13;;;10.60;63.70;;;;;;5063145;28;20401;-73
2023/12/23 12:17:11;;;;;;;14.93;3.70;;;10.70;62.70;;;;;;5063468;28;20410;-72
2023/12/23 12:19:37;;;;;;;7.33;2.70;;;10.70;61.90;;;;;;5051677;28;20860;-72
2023/12/23 12:22:03;;;;;;;11.30;3.33;;;10.80;60.20;;;;;;5056592;28;20419;-73
2023/12/23 12:24:30;;;;;;;12.80;3.00;;;10.80;59.90;;;;;;5066129;28;20401;-74
2023/12/23 12:26:59;;;;;;;12.88;2.65;;;10.80;59.40;;;;;;5059662;28;20401;-74
2023/12/23 12:29:25;;;;;;;6.97;3.20;;;10.80;60.00;;;;;;5061132;28;20497;-73
2023/12/23 12:31:51;;;;;;;7.03;3.07;;;10.90;59.20;;;;;;5055077;28;20405;-73
2023/12/23 12:34:18;;;;;;;10.48;2.95;;;10.80;59.40;;;;;;5054750;28;20633;-76
2023/12/23 12:36:43;;;;;;;17.85;2.95;;;10.90;58.20;;;;;;5053752;28;20461;-73
2023/12/23 12:39:10;;;;;;;8.82;2.75;;;10.90;58.40;;;;;;5060587;28;20450;-74
2023/12/23 12:41:37;;;;;;;8.95;3.42;;;10.90;58.20;;;;;;5055611;28;20457;-74